Time;durP1;ratioP1;P1;durP2;ratioP2;P2;SDS_P1;SDS_P2;PMS_P1;PMS_P2;Temp;Humidity;BMP_temperature;BMP_pressure;BME280_temperature;BME280_humidity;BME280_pressure;Samples;Min_cycle;Max_cycle;Signal;HPM_P1;HPM_P2
2022/09/09 00:00:05;;;;;;;793.30;739.90;;;;;;;21.01;68.13;99779.59;308431;31;2073;-75
2022/09/09 00:00:16;;;;;;;795.40;742.13;;;;;;;20.99;68.64;99788.69;303568;32;895;-75
2022/09/09 00:00:30;;;;;;;800.72;747.28;;;;;;;20.98;68.22;99786.97;302747;32;4861;-75
2022/09/09 00:00:46;;;;;;;797.83;744.42;;;;;;;20.95;68.59;99781.91;301436;32;4560;-75
2022/09/09 00:01:02;;;;;;;798.30;744.95;;;;;;;20.91;68.53;99784.81;299615;32;4484;-75
2022/09/09 00:01:40;;;;;;;798.25;745.08;;;;;;;20.92;68.36;99783.00;302484;32;3359;-75
2022/09/09 00:02:25;;;;;;;796.67;743.70;;;;;;;20.96;68.06;99789.78;298674;32;5665;-75
2022/09/09 00:02:36;;;;;;;794.05;740.80;;;;;;;20.99;67.93;99786.84;291480;33;6761;-75
2022/09/09 00:03:03;;;;;;;792.30;739.15;;;;;;;21.02;68.05;99793.75;290473;34;877;-75
2022/09/09 00:03:23;;;;;;;793.90;740.58;;;;;;;21.06;67.79;99789.88;289640;33;6347;-75
2022/09/09 00:04:01;;;;;;;793.40;740.00;;;;;;;21.03;67.64;99800.75;291412;33;1000;-75
2022/09/09 00:04:30;;;;;;;791.63;738.45;;;;;;;21.04;67.87;99791.81;284559;34;8117;-75
2022/09/09 00:04:40;;;;;;;779.38;726.72;;;;;;;21.04;67.77;99791.81;280202;34;9243;-75
2022/09/09 00:05:02;;;;;;;782.93;730.10;;;;;;;21.05;67.83;99793.50;278534;35;9514;-75
2022/09/09 00:05:28;;;;;;;781.80;729.08;;;;;;;21.04;67.66;99791.81;275741;35;8929;-75
2022/09/09 00:05:54;;;;;;;793.42;740.15;;;;;;;21.04;67.91;99791.81;275899;35;5534;-75
2022/09/09 00:07:54;;;;;;;671.73;621.78;;;;;;;21.07;67.85;99796.88;2487802;27;21006;-74
2022/09/09 00:08:04;;;;;;;717.10;665.80;;;;;;;21.06;68.06;99788.06;349759;28;2045;-74
2022/09/09 00:08:24;;;;;;;718.45;667.05;;;;;;;21.06;67.87;99788.06;345993;28;1990;-74
2022/09/09 00:09:10;;;;;;;724.90;673.53;;;;;;;21.05;68.23;99789.03;346575;28;1304;-74
2022/09/09 00:09:21;;;;;;;709.65;658.65;;;;;;;21.06;68.03;99789.88;342348;28;1035;-75
2022/09/09 00:09:59;;;;;;;708.35;657.22;;;;;;;21.07;67.54;99791.56;346192;28;844;-75
2022/09/09 00:10:30;;;;;;;711.45;660.42;;;;;;;21.09;67.97;99797.59;343967;28;1140;-74
2022/09/09 00:10:41;;;;;;;722.30;671.00;;;;;;;21.07;67.70;99792.41;342570;28;896;-75
2022/09/09 00:10:58;;;;;;;721.58;670.10;;;;;;;21.08;67.56;99793.25;342639;28;1323;-75
2022/09/09 00:11:08;;;;;;;719.17;667.55;;;;;;;21.04;67.84;99792.66;342482;28;892;-75
2022/09/09 00:11:24;;;;;;;722.87;671.30;;;;;;;21.03;68.07;99796.28;344128;28;1308;-75
2022/09/09 00:11:43;;;;;;;728.83;677.10;;;;;;;21.00;68.34;99790.38;343564;28;1113;-74
2022/09/09 00:12:11;;;;;;;724.80;673.05;;;;;;;20.98;68.57;99786.97;343856;28;1651;-74
2022/09/09 00:12:34;;;;;;;731.22;679.58;;;;;;;20.98;68.08;99792.31;344002;28;889;-74
2022/09/09 00:12:57;;;;;;;722.53;670.90;;;;;;;21.02;68.42;99791.09;344165;28;921;-74
2022/09/09 00:13:16;;;;;;;726.10;674.38;;;;;;;21.03;67.90;99790.97;341360;28;1011;-75
2022/09/09 00:13:37;;;;;;;727.80;676.30;;;;;;;21.04;68.10;99783.81;340634;28;1159;-74
2022/09/09 00:13:50;;;;;;;718.10;666.53;;;;;;;21.04;68.20;99786.50;336002;29;1442;-74
2022/09/09 00:14:04;;;;;;;726.25;674.45;;;;;;;21.01;68.40;99789.41;335713;29;1479;-74
2022/09/09 00:14:30;;;;;;;730.33;678.45;;;;;;;21.00;68.66;99799.19;335737;29;1303;-74
2022/09/09 00:15:00;;;;;;;721.78;670.25;;;;;;;20.95;68.77;99787.22;340056;29;1342;-74
2022/09/09 00:15:19;;;;;;;719.40;668.13;;;;;;;20.91;68.94;99790.13;335861;29;1193;-75
2022/09/09 00:15:50;;;;;;;713.75;662.47;;;;;;;20.91;69.27;99784.81;335604;29;1415;-74
2022/09/09 00:16:04;;;;;;;715.08;663.97;;;;;;;20.90;69.13;99791.09;338212;29;1319;-74
2022/09/09 00:16:19;;;;;;;719.70;668.17;;;;;;;20.90;68.82;99788.44;337850;29;1396;-74
2022/09/09 00:16:30;;;;;;;720.70;669.20;;;;;;;20.87;68.74;99794.00;335356;29;1284;-74
2022/09/09 00:16:41;;;;;;;721.10;669.58;;;;;;;20.86;69.24;99787.00;331377;29;1934;-74
2022/09/09 00:16:55;;;;;;;720.08;668.45;;;;;;;20.84;69.10;99785.44;328514;30;1033;-75
2022/09/09 00:17:12;;;;;;;712.35;660.72;;;;;;;20.86;68.95;99781.69;329655;29;1358;-75
2022/09/09 00:17:41;;;;;;;710.85;659.30;;;;;;;20.89;69.19;99784.09;329705;29;1252;-75
2022/09/09 00:18:00;;;;;;;715.08;663.92;;;;;;;20.89;69.55;99789.41;326163;30;1664;-76
2022/09/09 00:18:11;;;;;;;701.08;650.10;;;;;;;20.87;69.24;99780.72;327348;30;1384;-76
2022/09/09 00:18:25;;;;;;;700.60;649.60;;;;;;;20.88;69.25;99786.88;326674;30;2005;-75
2022/09/09 00:18:50;;;;;;;703.22;652.40;;;;;;;20.89;69.14;99785.91;326361;30;1766;-75
2022/09/09 00:19:18;;;;;;;716.70;665.58;;;;;;;20.91;69.01;99789.28;326031;30;1573;-75
2022/09/09 00:20:00;;;;;;;725.40;674.05;;;;;;;20.92;69.32;99783.84;326014;30;1183;-75
2022/09/09 00:20:29;;;;;;;718.63;667.03;;;;;;;20.95;69.00;99792.56;320290;30;1316;-76
2022/09/09 00:20:55;;;;;;;701.65;651.00;;;;;;;20.93;69.27;99790.84;316577;31;1402;-75
2022/09/09 00:21:07;;;;;;;724.88;673.33;;;;;;;20.90;69.29;99783.13;324035;30;2351;-75
2022/09/09 00:21:18;;;;;;;730.08;678.60;;;;;;;20.91;69.37;99787.47;321880;30;1425;-75
2022/09/09 00:21:34;;;;;;;733.07;681.30;;;;;;;20.89;69.46;99784.09;320735;30;1626;-75
2022/09/09 00:22:16;;;;;;;725.60;673.97;;;;;;;20.90;69.05;99779.63;323210;30;1980;-75
2022/09/09 00:22:28;;;;;;;721.20;669.50;;;;;;;20.87;69.55;99780.72;317610;31;866;-75
2022/09/09 00:22:40;;;;;;;727.60;675.58;;;;;;;20.89;69.32;99785.91;312027;31;1312;-75
2022/09/09 00:23:36;;;;;;;722.50;670.72;;;;;;;20.87;69.52;99786.03;311219;31;3436;-75
2022/09/09 00:23:56;;;;;;;714.20;662.88;;;;;;;20.88;69.20;99785.06;304573;32;1963;-73
2022/09/09 00:24:29;;;;;;;715.35;664.13;;;;;;;20.90;69.08;99779.63;301299;32;2926;-73
2022/09/09 00:24:43;;;;;;;728.97;677.17;;;;;;;20.88;69.50;99779.75;291520;33;855;-74
2022/09/09 00:24:55;;;;;;;731.60;679.70;;;;;;;20.88;69.61;99782.41;290293;34;1213;-73
2022/09/09 00:25:16;;;;;;;729.97;677.85;;;;;;;20.88;69.76;99792.19;288951;33;5020;-73
2022/09/09 00:25:34;;;;;;;715.92;664.38;;;;;;;20.86;69.34;99787.00;284222;34;4150;-74
2022/09/09 00:26:23;;;;;;;717.15;665.53;;;;;;;20.84;69.77;99791.59;282495;34;2386;-73
2022/09/09 00:26:48;;;;;;;708.17;657.22;;;;;;;20.83;69.71;99794.38;278852;34;5516;-74
2022/09/09 00:27:29;;;;;;;714.53;663.20;;;;;;;20.81;69.86;99785.69;278279;35;7022;-74
2022/09/09 00:27:49;;;;;;;723.35;671.55;;;;;;;20.81;69.62;99785.69;276850;35;1255;-74
2022/09/09 00:27:59;;;;;;;719.40;667.94;;;;;;;20.82;69.42;99792.69;273274;35;3433;-74
2022/09/09 00:28:22;;;;;;;722.03;670.43;;;;;;;20.81;69.65;99786.53;273241;36;1321;-74
2022/09/09 00:28:35;;;;;;;725.08;673.28;;;;;;;20.81;69.80;99802.47;266045;36;6174;-74
2022/09/09 00:28:54;;;;;;;726.92;674.95;;;;;;;20.79;69.57;99799.13;265041;36;7650;-74
2022/09/09 00:29:21;;;;;;;714.83;663.28;;;;;;;20.77;69.91;99790.44;266821;36;8474;-74
2022/09/09 00:29:40;;;;;;;713.35;661.95;;;;;;;20.76;69.75;99794.06;263004;37;9851;-74
2022/09/09 00:31:38;;;;;;;652.15;602.07;;;;;;;20.75;70.15;99803.00;2491988;27;20785;-74
2022/09/09 00:31:49;;;;;;;730.42;678.72;;;;;;;20.74;70.14;99796.00;352157;28;1436;-74
2022/09/09 00:32:05;;;;;;;734.80;682.88;;;;;;;20.74;69.72;99801.31;349306;28;882;-74
2022/09/09 00:32:17;;;;;;;735.25;683.30;;;;;;;20.73;69.90;99799.63;345781;28;2161;-74
2022/09/09 00:32:29;;;;;;;734.13;682.38;;;;;;;20.75;69.63;99803.00;345319;28;1412;-74
2022/09/09 00:32:39;;;;;;;728.80;677.20;;;;;;;20.76;69.86;99796.72;345364;28;923;-74
2022/09/09 00:32:57;;;;;;;727.87;676.27;;;;;;;20.76;69.73;99803.84;345982;28;893;-76
2022/09/09 00:33:14;;;;;;;740.90;689.05;;;;;;;20.80;69.59;99806.13;348781;28;1462;-76
2022/09/09 00:33:25;;;;;;;768.58;716.13;;;;;;;20.79;69.59;99807.13;346633;28;1267;-75
2022/09/09 00:33:35;;;;;;;767.10;714.65;;;;;;;20.78;69.90;99808.09;348146;28;1367;-75
2022/09/09 00:33:46;;;;;;;764.07;711.57;;;;;;;20.76;69.72;99799.38;344599;28;862;-75
2022/09/09 00:34:20;;;;;;;756.70;704.40;;;;;;;20.76;69.78;99810.00;345100;28;1233;-75
2022/09/09 00:34:30;;;;;;;755.90;703.78;;;;;;;20.77;69.39;99806.38;346810;28;1708;-75
2022/09/09 00:34:56;;;;;;;755.60;703.47;;;;;;;20.80;69.37;99811.44;346659;28;864;-74
2022/09/09 00:35:17;;;;;;;743.63;691.83;;;;;;;20.76;69.72;99809.16;346512;28;1420;-74
2022/09/09 00:35:39;;;;;;;744.40;692.30;;;;;;;20.74;69.65;99806.63;342393;28;1308;-75
2022/09/09 00:35:51;;;;;;;747.13;695.13;;;;;;;20.72;69.62;99808.56;342024;28;1831;-74
2022/09/09 00:36:02;;;;;;;743.63;691.67;;;;;;;20.70;69.96;99810.50;342819;28;1012;-74
2022/09/09 00:36:16;;;;;;;746.60;694.40;;;;;;;20.69;69.84;99808.81;342506;28;1696;-74
2022/09/09 00:36:28;;;;;;;760.25;707.70;;;;;;;20.67;69.90;99808.09;337102;29;802;-73
2022/09/09 00:36:38;;;;;;;758.72;706.10;;;;;;;20.68;69.82;99807.13;339840;29;1397;-74
2022/09/09 00:36:52;;;;;;;758.83;706.20;;;;;;;20.66;70.17;99808.22;339983;28;1339;-74
2022/09/09 00:37:03;;;;;;;757.03;704.53;;;;;;;20.65;69.66;99806.50;338218;29;944;-74
2022/09/09 00:37:13;;;;;;;761.67;709.20;;;;;;;20.64;70.00;99812.81;337266;29;966;-74
2022/09/09 00:37:25;;;;;;;767.03;714.45;;;;;;;20.64;69.84;99802.16;337309;29;901;-73
2022/09/09 00:37:36;;;;;;;766.00;713.20;;;;;;;20.64;70.26;99813.66;339928;29;1197;-74
2022/09/09 00:37:48;;;;;;;757.50;704.95;;;;;;;20.62;70.29;99807.59;338597;29;1663;-74
2022/09/09 00:38:10;;;;;;;758.67;706.08;;;;;;;20.66;70.03;99809.06;338638;29;1354;-74
2022/09/09 00:38:34;;;;;;;758.80;706.25;;;;;;;20.67;69.83;99805.44;341005;28;1314;-74
2022/09/09 00:38:49;;;;;;;749.80;697.88;;;;;;;20.72;69.26;99807.72;339010;29;2285;-74
2022/09/09 00:39:00;;;;;;;761.28;709.13;;;;;;;20.71;69.83;99806.88;340219;28;1387;-74
2022/09/09 00:39:31;;;;;;;764.70;712.20;;;;;;;20.66;69.86;99808.22;341185;28;849;-74
2022/09/09 00:39:42;;;;;;;762.22;710.20;;;;;;;20.62;70.00;99810.25;335994;29;1287;-74
2022/09/09 00:39:54;;;;;;;765.60;713.42;;;;;;;20.62;69.76;99806.75;333404;29;1707;-74
2022/09/09 00:40:29;;;;;;;761.63;709.17;;;;;;;20.57;69.89;99807.13;335032;29;1328;-75
2022/09/09 00:40:50;;;;;;;757.63;705.13;;;;;;;20.55;70.03;99796.59;335884;29;1143;-74
2022/09/09 00:41:22;;;;;;;757.40;704.85;;;;;;;20.58;70.41;99806.16;338299;29;1579;-74
2022/09/09 00:42:01;;;;;;;770.70;717.85;;;;;;;20.61;70.23;99805.91;333887;29;1499;-75
2022/09/09 00:42:24;;;;;;;759.80;707.63;;;;;;;20.60;70.08;99798.91;322437;30;1793;-76
2022/09/09 00:42:41;;;;;;;775.92;723.15;;;;;;;20.61;70.51;99800.59;317431;30;2209;-75
2022/09/09 00:43:01;;;;;;;772.67;719.75;;;;;;;20.57;70.46;99799.97;315487;31;842;-74
2022/09/09 00:43:25;;;;;;;758.88;706.38;;;;;;;20.56;70.58;99797.44;314064;31;1587;-74
2022/09/09 00:43:36;;;;;;;761.25;708.92;;;;;;;20.56;70.66;99797.44;320563;30;1775;-75
2022/09/09 00:43:58;;;;;;;764.95;712.50;;;;;;;20.54;70.38;99802.03;319141;30;2002;-74
2022/09/09 00:44:14;;;;;;;775.20;722.17;;;;;;;20.54;70.81;99804.69;319020;30;1531;-74
2022/09/09 00:44:35;;;;;;;774.10;721.35;;;;;;;20.59;70.17;99805.19;317583;31;995;-75
2022/09/09 00:45:17;;;;;;;769.33;716.78;;;;;;;20.59;70.06;99803.38;312913;31;2866;-74
2022/09/09 00:45:49;;;;;;;787.60;734.35;;;;;;;20.61;70.12;99800.59;308769;31;2042;-74
2022/09/09 00:46:35;;;;;;;768.10;715.63;;;;;;;20.61;70.52;99799.75;307430;31;3008;-74
2022/09/09 00:46:54;;;;;;;791.05;737.88;;;;;;;20.65;69.75;99795.88;302143;32;3612;-75
2022/09/09 00:47:20;;;;;;;784.58;731.60;;;;;;;20.61;70.22;99792.63;301816;32;3395;-74
2022/09/09 00:47:56;;;;;;;788.83;735.83;;;;;;;20.61;70.11;99795.28;299177;32;2324;-74
2022/09/09 00:48:10;;;;;;;788.22;735.53;;;;;;;20.58;70.50;99795.50;298396;33;1356;-74
2022/09/09 00:48:20;;;;;;;776.92;724.28;;;;;;;20.56;70.45;99795.63;299213;32;3931;-74
2022/09/09 00:49:07;;;;;;;775.50;722.80;;;;;;;20.57;70.53;99794.66;297102;33;5470;-74
2022/09/09 00:49:46;;;;;;;791.97;739.00;;;;;;;20.58;70.38;99790.19;293305;33;4762;-75
2022/09/09 00:50:24;;;;;;;778.05;725.70;;;;;;;20.59;70.69;99798.06;290671;33;4245;-74
2022/09/09 00:50:52;;;;;;;776.10;723.65;;;;;;;20.58;70.36;99795.50;286286;34;5560;-75
2022/09/09 00:51:10;;;;;;;782.00;729.25;;;;;;;20.57;70.37;99796.47;286131;34;6424;-74
2022/09/09 00:51:30;;;;;;;783.28;730.20;;;;;;;20.54;70.35;99794.06;282105;34;6516;-74
2022/09/09 00:51:59;;;;;;;786.50;733.30;;;;;;;20.52;70.53;99793.34;278263;35;839;-75
2022/09/09 00:52:22;;;;;;;787.75;734.85;;;;;;;20.56;70.17;99797.44;276682;35;971;-75
2022/09/09 00:52:52;;;;;;;793.03;740.00;;;;;;;20.58;70.44;99800.84;276375;35;7522;-75
2022/09/09 00:53:31;;;;;;;785.88;733.00;;;;;;;20.53;70.85;99793.22;271180;35;8512;-75
2022/09/09 00:54:23;;;;;;;794.05;740.80;;;;;;;20.54;70.86;99800.22;267305;36;8542;-74
2022/09/09 00:56:30;;;;;;;731.94;680.54;;;;;;;20.58;70.40;99798.16;2486425;27;20498;-74
2022/09/09 00:57:15;;;;;;;783.08;730.20;;;;;;;20.59;70.49;99807.84;347151;28;2081;-74
2022/09/09 00:57:31;;;;;;;785.28;732.53;;;;;;;20.58;70.87;99807.00;342180;28;1401;-74
2022/09/09 00:57:41;;;;;;;785.42;732.47;;;;;;;20.58;70.36;99808.81;341051;28;934;-74
2022/09/09 00:57:52;;;;;;;784.27;731.27;;;;;;;20.58;70.50;99806.16;343765;28;1430;-74
2022/09/09 00:58:02;;;;;;;787.80;734.83;;;;;;;20.60;70.43;99801.56;342741;28;1366;-74
2022/09/09 00:58:13;;;;;;;791.15;738.00;;;;;;;20.62;70.43;99807.59;342341;28;1209;-74
2022/09/09 00:58:23;;;;;;;804.10;750.60;;;;;;;20.61;70.62;99805.06;343329;28;976;-74
2022/09/09 00:58:34;;;;;;;798.33;744.90;;;;;;;20.61;70.37;99805.91;344226;28;1589;-74
2022/09/09 00:58:51;;;;;;;797.80;744.50;;;;;;;20.58;70.69;99803.50;343771;28;1256;-74
2022/09/09 00:59:10;;;;;;;800.10;746.90;;;;;;;20.54;70.62;99804.69;343385;28;1802;-74
2022/09/09 00:59:45;;;;;;;796.70;743.70;;;;;;;20.56;70.50;99808.09;343842;28;1238;-74
2022/09/09 01:00:24;;;;;;;795.67;742.88;;;;;;;20.52;70.87;99804.81;342618;28;762;-74
2022/09/09 01:00:40;;;;;;;795.55;742.92;;;;;;;20.54;70.36;99802.03;342339;28;1162;-75
2022/09/09 01:01:17;;;;;;;798.25;745.33;;;;;;;20.52;69.87;99803.97;343960;28;1526;-74
2022/09/09 01:01:27;;;;;;;794.15;740.85;;;;;;;20.51;70.30;99804.94;339803;28;1289;-73
2022/09/09 01:01:39;;;;;;;801.45;748.00;;;;;;;20.51;70.00;99800.47;338546;29;1287;-75
2022/09/09 01:01:49;;;;;;;801.90;748.60;;;;;;;20.50;70.52;99808.56;340035;28;1153;-75
2022/09/09 01:02:01;;;;;;;800.30;747.03;;;;;;;20.52;70.14;99814.59;339611;28;1384;-75
2022/09/09 01:02:22;;;;;;;800.28;746.97;;;;;;;20.52;70.30;99806.63;339813;29;889;-75
2022/09/09 01:02:53;;;;;;;793.63;740.30;;;;;;;20.50;70.19;99803.25;337835;29;969;-75
2022/09/09 01:03:31;;;;;;;797.90;744.80;;;;;;;20.51;69.97;99804.94;340456;28;1384;-75
2022/09/09 01:03:55;;;;;;;779.65;727.47;;;;;;;20.53;70.09;99805.66;343826;28;1207;-75
2022/09/09 01:04:16;;;;;;;791.97;739.22;;;;;;;20.51;70.00;99804.94;338030;29;1724;-74
2022/09/09 01:04:32;;;;;;;795.90;742.92;;;;;;;20.53;69.98;99808.31;336809;29;1504;-74
2022/09/09 01:04:42;;;;;;;799.47;746.25;;;;;;;20.56;69.94;99808.09;338471;29;3248;-75
2022/09/09 01:04:54;;;;;;;804.00;750.47;;;;;;;20.57;70.10;99807.13;338332;29;1371;-75
2022/09/09 01:05:15;;;;;;;799.15;745.92;;;;;;;20.52;69.92;99802.16;338111;29;1656;-75
2022/09/09 01:05:43;;;;;;;796.28;743.22;;;;;;;20.52;69.95;99803.97;334533;29;1911;-75
2022/09/09 01:06:03;;;;;;;794.45;741.10;;;;;;;20.46;70.32;99801.78;336194;29;934;-74
2022/09/09 01:06:31;;;;;;;791.88;738.90;;;;;;;20.45;70.08;99810.75;332102;29;907;-75
2022/09/09 01:06:42;;;;;;;781.25;728.88;;;;;;;20.46;70.55;99805.31;327244;30;1282;-74
2022/09/09 01:06:55;;;;;;;788.90;736.15;;;;;;;20.47;70.67;99808.81;327078;29;1916;-74
2022/09/09 01:07:13;;;;;;;794.92;741.67;;;;;;;20.46;70.68;99805.31;325306;30;1997;-75
2022/09/09 01:07:24;;;;;;;793.38;740.08;;;;;;;20.44;70.45;99804.56;326557;30;2188;-75
2022/09/09 01:07:34;;;;;;;790.30;736.97;;;;;;;20.44;70.63;99798.41;327328;29;1803;-75
2022/09/09 01:07:45;;;;;;;789.90;736.70;;;;;;;20.44;70.73;99801.06;329837;29;927;-75
2022/09/09 01:07:56;;;;;;;790.97;737.92;;;;;;;20.46;70.62;99807.09;326122;30;1080;-75
2022/09/09 01:08:12;;;;;;;788.53;735.57;;;;;;;20.43;70.70;99810.84;324824;30;1284;-75
2022/09/09 01:09:05;;;;;;;787.10;733.85;;;;;;;20.40;70.78;99805.78;324229;30;1825;-75
2022/09/09 01:09:26;;;;;;;782.90;730.30;;;;;;;20.36;71.12;99806.13;317748;30;2528;-74
2022/09/09 01:09:51;;;;;;;799.42;746.22;;;;;;;20.37;70.92;99802.47;314042;31;2793;-75
2022/09/09 01:10:06;;;;;;;786.03;733.17;;;;;;;20.39;70.70;99812.06;312774;31;1240;-75
2022/09/09 01:10:34;;;;;;;789.78;736.78;;;;;;;20.37;70.79;99808.63;311398;31;2805;-75
2022/09/09 01:10:50;;;;;;;796.58;743.40;;;;;;;20.36;70.52;99800.81;304897;31;2904;-75
2022/09/09 01:11:02;;;;;;;798.88;745.45;;;;;;;20.36;70.62;99798.16;304882;32;3483;-75
2022/09/09 01:11:20;;;;;;;799.05;745.78;;;;;;;20.38;70.55;99802.41;303264;32;1383;-76
2022/09/09 01:11:42;;;;;;;802.03;748.53;;;;;;;20.38;70.48;99804.19;302802;32;3610;-75
2022/09/09 01:12:11;;;;;;;796.58;742.88;;;;;;;20.38;70.32;99805.06;305000;32;3038;-75
2022/09/09 01:12:25;;;;;;;786.97;734.20;;;;;;;20.38;70.37;99805.06;303721;32;2009;-75
2022/09/09 01:12:40;;;;;;;780.28;727.40;;;;;;;20.38;70.43;99804.19;304549;32;2577;-75
2022/09/09 01:12:51;;;;;;;787.40;734.25;;;;;;;20.36;70.57;99806.13;305338;31;3635;-75
2022/09/09 01:13:02;;;;;;;794.30;740.92;;;;;;;20.36;70.65;99806.94;305848;32;4024;-76
2022/09/09 01:13:24;;;;;;;796.90;743.58;;;;;;;20.36;70.31;99811.44;304411;32;1511;-76
2022/09/09 01:13:35;;;;;;;800.58;747.38;;;;;;;20.36;70.53;99800.81;300066;32;4740;-76
2022/09/09 01:13:47;;;;;;;793.83;740.63;;;;;;;20.36;70.71;99806.94;297773;32;4429;-76
2022/09/09 01:14:25;;;;;;;797.25;743.72;;;;;;;20.37;70.24;99802.47;302691;32;1921;-75
2022/09/09 01:14:42;;;;;;;793.58;740.47;;;;;;;20.36;70.16;99806.13;297262;32;2724;-76
2022/09/09 01:15:10;;;;;;;797.42;744.15;;;;;;;20.34;70.71;99802.75;296262;33;3545;-74
2022/09/09 01:15:24;;;;;;;798.10;745.15;;;;;;;20.33;70.48;99801.91;292816;33;5633;-75
2022/09/09 01:15:34;;;;;;;795.83;742.88;;;;;;;20.34;70.57;99802.75;293076;33;6657;-75
2022/09/09 01:15:46;;;;;;;798.55;745.33;;;;;;;20.33;70.45;99804.56;288669;34;6196;-75
2022/09/09 01:15:59;;;;;;;785.65;732.50;;;;;;;20.32;70.64;99799.38;285216;34;2218;-75
2022/09/09 01:16:11;;;;;;;794.45;741.13;;;;;;;20.34;70.24;99802.75;287704;33;6266;-75
2022/09/09 01:16:21;;;;;;;801.75;748.25;;;;;;;20.30;70.39;99801.28;286490;34;5720;-75
2022/09/09 01:16:32;;;;;;;805.78;752.38;;;;;;;20.31;70.69;99802.97;281000;34;3797;-75
2022/09/09 01:16:42;;;;;;;801.43;748.13;;;;;;;20.30;70.62;99795.97;277514;35;1855;-75
2022/09/09 01:16:54;;;;;;;809.22;755.63;;;;;;;20.29;70.39;99799.59;280029;34;4228;-75
2022/09/09 01:17:18;;;;;;;810.85;757.03;;;;;;;20.27;70.46;99803.22;281837;34;5969;-75
2022/09/09 01:17:34;;;;;;;780.85;728.25;;;;;;;20.27;70.72;99803.22;282702;34;1522;-75
2022/09/09 01:17:44;;;;;;;786.25;733.13;;;;;;;20.28;70.75;99801.41;279197;35;863;-75
2022/09/09 01:18:10;;;;;;;797.90;744.30;;;;;;;20.30;70.44;99799.47;274959;35;9411;-75
2022/09/09 01:18:22;;;;;;;804.17;751.08;;;;;;;20.29;70.22;99799.59;274766;35;8827;-75
2022/09/09 01:18:35;;;;;;;803.90;750.80;;;;;;;20.28;70.42;99804.06;273074;35;8136;-75
2022/09/09 01:20:27;;;;;;;737.56;686.26;;;;;;;20.26;70.74;99801.53;2489902;27;20360;-75
2022/09/09 01:20:44;;;;;;;809.83;756.40;;;;;;;20.25;70.90;99799.00;351551;28;1015;-75
2022/09/09 01:21:15;;;;;;;818.17;764.67;;;;;;;20.22;70.80;99809.84;351962;28;875;-74
2022/09/09 01:21:50;;;;;;;800.70;747.75;;;;;;;20.16;70.94;99808.53;349392;28;1308;-74
2022/09/09 01:22:26;;;;;;;798.05;745.33;;;;;;;20.15;70.84;99809.47;347988;28;3494;-74
2022/09/09 01:22:39;;;;;;;796.80;743.55;;;;;;;20.11;70.68;99796.56;342059;28;1880;-74
2022/09/09 01:22:55;;;;;;;797.03;744.03;;;;;;;20.12;71.04;99801.75;341799;28;1287;-74
2022/09/09 01:23:34;;;;;;;801.80;748.88;;;;;;;20.15;71.00;99806.81;342147;28;1609;-75
2022/09/09 01:23:44;;;;;;;803.05;750.13;;;;;;;20.16;70.82;99797.88;341633;28;1255;-75
2022/09/09 01:24:15;;;;;;;803.33;750.43;;;;;;;20.15;71.11;99808.63;344748;28;897;-75
2022/09/09 01:24:38;;;;;;;797.90;745.53;;;;;;;20.16;71.27;99810.34;342923;28;1951;-75
2022/09/09 01:25:07;;;;;;;809.78;756.60;;;;;;;20.16;70.60;99799.69;344260;28;1448;-75
2022/09/09 01:25:55;;;;;;;801.80;749.10;;;;;;;20.15;70.64;99805.97;344808;28;1211;-75
2022/09/09 01:26:14;;;;;;;796.45;743.60;;;;;;;20.16;70.73;99800.53;343856;28;1328;-74
2022/09/09 01:26:27;;;;;;;802.97;749.67;;;;;;;20.17;70.97;99804.91;341377;28;1953;-74
2022/09/09 01:26:44;;;;;;;805.45;751.97;;;;;;;20.15;70.74;99798.84;335761;29;786;-74
2022/09/09 01:26:57;;;;;;;793.75;740.60;;;;;;;20.13;70.93;99806.09;337056;29;1460;-74
2022/09/09 01:27:07;;;;;;;801.47;748.17;;;;;;;20.14;70.83;99797.16;332141;29;1436;-74
2022/09/09 01:27:17;;;;;;;808.28;754.75;;;;;;;20.13;70.89;99800.78;331568;29;1290;-74
2022/09/09 01:27:28;;;;;;;816.30;762.53;;;;;;;20.16;70.74;99797.88;332022;29;1579;-74
2022/09/09 01:27:39;;;;;;;817.70;764.00;;;;;;;20.16;70.50;99802.34;333152;29;1196;-75
2022/09/09 01:27:49;;;;;;;816.72;762.97;;;;;;;20.15;70.64;99804.16;333147;29;1005;-75
2022/09/09 01:28:02;;;;;;;813.83;760.13;;;;;;;20.15;70.83;99798.84;329305;29;2323;-75
2022/09/09 01:28:25;;;;;;;813.13;759.63;;;;;;;20.16;70.81;99803.22;330961;29;1439;-75
2022/09/09 01:28:36;;;;;;;802.95;749.78;;;;;;;20.16;70.82;99800.53;335699;29;1354;-75
2022/09/09 01:28:48;;;;;;;806.80;753.45;;;;;;;20.15;70.77;99796.19;335242;29;1292;-75
2022/09/09 01:28:59;;;;;;;810.40;756.97;;;;;;;20.16;70.81;99803.22;332132;29;1632;-75
2022/09/09 01:29:13;;;;;;;813.20;759.55;;;;;;;20.17;71.20;99802.25;330774;29;1919;-75
2022/09/09 01:29:24;;;;;;;812.92;759.28;;;;;;;20.18;70.78;99795.97;331821;29;942;-75
2022/09/09 01:29:34;;;;;;;813.08;759.60;;;;;;;20.19;70.67;99800.31;331300;29;1408;-75
2022/09/09 01:29:45;;;;;;;813.47;759.97;;;;;;;20.20;70.64;99806.47;330143;29;1438;-75
2022/09/09 01:29:55;;;;;;;810.42;757.05;;;;;;;20.20;70.58;99799.34;330475;29;2016;-76
2022/09/09 01:30:11;;;;;;;811.03;757.70;;;;;;;20.19;70.73;99802.97;330615;29;1464;-76
2022/09/09 01:30:21;;;;;;;805.67;752.53;;;;;;;20.19;70.93;99802.97;327978;30;1813;-75
2022/09/09 01:30:32;;;;;;;802.33;749.17;;;;;;;20.19;70.75;99791.50;325144;29;1753;-76
2022/09/09 01:30:43;;;;;;;807.47;754.17;;;;;;;20.19;70.74;99804.78;325018;29;2059;-75
2022/09/09 01:30:53;;;;;;;807.53;754.13;;;;;;;20.16;70.75;99805.00;324821;30;1245;-75
2022/09/09 01:31:05;;;;;;;803.73;750.37;;;;;;;20.14;70.84;99802.47;323898;30;2199;-76
2022/09/09 01:31:36;;;;;;;799.72;746.47;;;;;;;20.10;70.72;99803.69;325543;29;2100;-74
2022/09/09 01:31:57;;;;;;;807.67;754.35;;;;;;;20.04;71.16;99801.50;324497;30;1722;-75
2022/09/09 01:32:42;;;;;;;796.15;743.17;;;;;;;20.04;71.32;99801.50;322273;30;1278;-75
2022/09/09 01:32:55;;;;;;;811.08;757.72;;;;;;;20.02;71.33;99798.09;321936;30;1552;-75
2022/09/09 01:33:09;;;;;;;809.50;755.88;;;;;;;20.03;71.34;99804.25;319782;30;858;-75
2022/09/09 01:33:20;;;;;;;808.53;754.95;;;;;;;20.03;71.38;99804.25;320107;30;2603;-74
2022/09/09 01:33:30;;;;;;;808.20;754.87;;;;;;;20.04;71.25;99806.81;321403;30;2784;-74
2022/09/09 01:33:40;;;;;;;817.00;763.42;;;;;;;20.04;71.06;99804.16;318693;30;940;-76
2022/09/09 01:33:51;;;;;;;814.90;761.37;;;;;;;20.04;70.98;99805.97;315724;31;896;-74
2022/09/09 01:34:01;;;;;;;817.42;763.85;;;;;;;20.04;71.02;99806.81;315617;31;1336;-74
2022/09/09 01:34:13;;;;;;;809.90;756.50;;;;;;;20.03;71.23;99799.78;317026;30;2021;-76
2022/09/09 01:34:35;;;;;;;814.35;760.72;;;;;;;20.04;71.46;99798.84;316370;31;1677;-74
2022/09/09 01:34:46;;;;;;;807.35;754.00;;;;;;;20.02;71.30;99798.09;312516;30;2949;-74
2022/09/09 01:34:56;;;;;;;803.57;750.27;;;;;;;20.01;71.24;99795.56;315736;31;3389;-74
2022/09/09 01:35:36;;;;;;;803.65;750.30;;;;;;;20.02;71.33;99798.09;312213;31;2092;-74
2022/09/09 01:36:03;;;;;;;796.30;743.17;;;;;;;20.06;71.39;99804.03;312800;31;2770;-75
2022/09/09 01:36:37;;;;;;;814.13;760.72;;;;;;;20.07;71.18;99795.94;305168;32;2314;-74
2022/09/09 01:36:56;;;;;;;818.53;765.03;;;;;;;20.07;71.32;99792.44;299898;32;4002;-74
2022/09/09 01:37:10;;;;;;;816.15;762.28;;;;;;;20.07;71.13;99800.41;298196;33;1326;-74
2022/09/09 01:37:21;;;;;;;809.38;755.75;;;;;;;20.06;71.38;99802.22;294111;33;923;-74
2022/09/09 01:37:31;;;;;;;813.17;759.17;;;;;;;20.03;71.21;99799.78;294395;33;4904;-74
2022/09/09 01:37:42;;;;;;;814.15;759.95;;;;;;;20.05;71.24;99797.03;292784;33;4000;-74
2022/09/09 01:37:52;;;;;;;816.73;762.50;;;;;;;20.04;71.25;99795.31;292182;33;1316;-74